createdAt,value
2022-08-20T00:01:02.570Z,6.82
2022-08-20T00:04:07.789Z,7.68
2022-08-20T00:07:14.224Z,6.15
2022-08-20T00:10:22.898Z,7.35
2022-08-20T00:13:32.682Z,8.13
2022-08-20T00:16:40.110Z,5.78
2022-08-20T00:19:45.143Z,7.25
2022-08-20T00:22:50.550Z,6.45
2022-08-20T00:25:58.250Z,7.35
2022-08-20T00:29:03.362Z,8.07
2022-08-20T00:32:08.522Z,7.72
2022-08-20T00:35:13.775Z,6.32
2022-08-20T00:38:19.259Z,6.82
2022-08-20T00:41:29.134Z,6.15
2022-08-20T00:44:34.479Z,6.38
2022-08-20T00:47:40.445Z,9.70
2022-08-20T00:50:59.325Z,8.00
2022-08-20T00:54:08.421Z,9.23
2022-08-20T00:57:24.882Z,9.13
2022-08-20T01:00:32.649Z,10.85
2022-08-20T01:03:38.470Z,7.18
2022-08-20T01:06:44.942Z,13.20
2022-08-20T01:09:59.063Z,7.75
2022-08-20T01:13:12.073Z,8.43
2022-08-20T01:16:24.054Z,7.95
2022-08-20T01:19:33.355Z,8.80
2022-08-20T01:22:58.407Z,9.93
2022-08-20T01:26:10.817Z,7.80
2022-08-20T01:29:20.094Z,10.32
2022-08-20T01:32:25.098Z,9.13
2022-08-20T01:35:31.685Z,10.57
2022-08-20T01:38:38.605Z,9.52
2022-08-20T01:42:06.312Z,9.18
2022-08-20T01:45:11.850Z,9.10
2022-08-20T01:48:18.124Z,11.23
2022-08-20T01:51:27.794Z,8.32
2022-08-20T01:54:35.203Z,11.45
2022-08-20T01:57:43.594Z,10.07
2022-08-20T02:00:49.205Z,15.38
2022-08-20T02:03:54.851Z,14.05
2022-08-20T02:07:01.950Z,12.75
2022-08-20T02:10:09.042Z,12.13
2022-08-20T02:13:17.138Z,13.75
2022-08-20T02:16:24.617Z,11.88
2022-08-20T02:19:33.129Z,13.43
2022-08-20T02:22:49.931Z,13.88
2022-08-20T02:25:56.880Z,14.07
2022-08-20T02:29:04.545Z,18.60
2022-08-20T02:32:23.748Z,16.73
2022-08-20T02:35:37.398Z,11.93
2022-08-20T02:38:43.801Z,15.30
2022-08-20T02:41:50.076Z,12.65
2022-08-20T02:44:58.657Z,17.23
2022-08-20T02:48:04.096Z,17.25
2022-08-20T02:51:10.024Z,15.88
2022-08-20T02:54:16.189Z,12.52
2022-08-20T02:57:23.016Z,16.27
2022-08-20T03:00:38.501Z,13.70
2022-08-20T03:03:44.733Z,13.80
2022-08-20T03:06:49.704Z,10.80
2022-08-20T03:09:57.426Z,15.90
2022-08-20T03:13:03.654Z,10.48
2022-08-20T03:16:11.908Z,14.27
2022-08-20T03:19:16.908Z,17.15
2022-08-20T03:22:21.869Z,11.18
2022-08-20T03:25:27.824Z,15.30
2022-08-20T03:28:32.991Z,13.82
2022-08-20T03:31:40.697Z,13.45
2022-08-20T03:34:45.682Z,12.65
2022-08-20T03:37:51.053Z,22.30
2022-08-20T03:40:56.170Z,12.20
2022-08-20T03:44:01.610Z,11.93
2022-08-20T03:47:10.267Z,20.27
2022-08-20T03:50:23.113Z,12.57
2022-08-20T03:53:31.670Z,12.02
2022-08-20T03:56:36.700Z,15.60
2022-08-20T03:59:41.704Z,15.55
2022-08-20T04:02:49.274Z,12.80
2022-08-20T04:05:54.386Z,18.35
2022-08-20T04:08:59.957Z,15.35
2022-08-20T04:12:05.145Z,10.52
2022-08-20T04:15:12.797Z,14.00
2022-08-20T04:18:23.045Z,13.95
2022-08-20T04:21:29.687Z,12.15
2022-08-20T04:24:38.237Z,11.00
2022-08-20T04:27:43.949Z,14.07
2022-08-20T04:30:51.819Z,12.98
2022-08-20T04:33:59.626Z,13.82
2022-08-20T04:37:04.721Z,12.52
2022-08-20T04:40:25.421Z,11.90
2022-08-20T04:43:33.528Z,15.32
2022-08-20T04:46:38.822Z,13.45
2022-08-20T04:49:46.421Z,12.40
2022-08-20T04:52:51.808Z,9.20
2022-08-20T04:55:59.821Z,18.27
2022-08-20T04:59:05.434Z,13.45
2022-08-20T05:02:10.442Z,13.20
2022-08-20T05:05:23.131Z,13.70
2022-08-20T05:08:29.889Z,15.05
2022-08-20T05:11:36.956Z,15.88
2022-08-20T05:14:42.226Z,18.00
2022-08-20T05:17:47.378Z,16.17
2022-08-20T05:21:06.209Z,17.40
2022-08-20T05:24:12.478Z,16.73
2022-08-20T05:27:24.899Z,18.42
2022-08-20T05:30:34.315Z,17.65
2022-08-20T05:33:41.686Z,15.18
2022-08-20T05:36:51.364Z,16.33
2022-08-20T05:39:56.715Z,20.80
2022-08-20T05:43:04.630Z,16.98
2022-08-20T05:46:09.799Z,18.13
2022-08-20T05:49:17.396Z,20.05
2022-08-20T05:52:25.025Z,18.48
2022-08-20T05:55:30.406Z,15.05
2022-08-20T05:58:35.416Z,17.20
2022-08-20T06:01:43.273Z,14.70
2022-08-20T06:04:45.682Z,12.80
2022-08-20T06:07:54.834Z,22.48
2022-08-20T06:11:04.466Z,14.98
2022-08-20T06:14:09.422Z,11.15
2022-08-20T06:17:16.267Z,18.02
2022-08-20T06:20:21.950Z,18.75
2022-08-20T06:23:56.364Z,16.45
2022-08-20T06:26:59.098Z,12.98
2022-08-20T06:30:04.077Z,11.45
2022-08-20T06:33:10.023Z,15.73
2022-08-20T06:36:14.977Z,16.42
2022-08-20T06:39:27.125Z,17.30
2022-08-20T06:42:32.304Z,17.42
2022-08-20T06:45:38.959Z,13.60
2022-08-20T06:48:44.451Z,15.27
2022-08-20T06:51:51.907Z,21.50
2022-08-20T06:54:59.675Z,12.88
2022-08-20T06:58:06.906Z,10.98
2022-08-20T07:01:21.342Z,12.30
2022-08-20T07:04:27.207Z,15.73
2022-08-20T07:07:32.201Z,17.05
2022-08-20T07:10:39.954Z,17.42
2022-08-20T07:13:45.458Z,10.65
2022-08-20T07:16:51.016Z,13.73
2022-08-20T07:19:55.963Z,12.80
2022-08-20T07:23:01.013Z,15.55
2022-08-20T07:26:08.820Z,12.13
2022-08-20T07:29:13.882Z,14.93
2022-08-20T07:32:31.299Z,15.40
2022-08-20T07:35:36.615Z,22.02
2022-08-20T07:38:41.689Z,13.43
2022-08-20T07:42:03.122Z,15.48
2022-08-20T07:45:10.915Z,14.18
2022-08-20T07:48:31.001Z,11.80
2022-08-20T07:51:37.518Z,13.07
2022-08-20T07:54:43.405Z,16.05
2022-08-20T07:57:52.203Z,15.88
2022-08-20T08:00:57.286Z,16.90
2022-08-20T08:04:04.683Z,18.25
2022-08-20T08:07:10.590Z,15.15
2022-08-20T08:10:21.102Z,8.82
2022-08-20T08:13:30.271Z,14.48
2022-08-20T08:16:35.474Z,14.48
2022-08-20T08:19:46.806Z,12.93
2022-08-20T08:22:52.689Z,7.03
2022-08-20T08:25:58.443Z,14.05
2022-08-20T08:29:07.556Z,12.23
2022-08-20T08:32:15.552Z,11.30
2022-08-20T08:35:20.493Z,18.25
2022-08-20T08:38:26.684Z,12.05
2022-08-20T08:41:35.143Z,11.82
2022-08-20T08:44:44.814Z,11.52
2022-08-20T08:47:51.632Z,7.68
2022-08-20T08:50:59.628Z,12.25
2022-08-20T08:54:07.066Z,13.00
2022-08-20T08:57:13.366Z,10.93
2022-08-20T09:00:24.046Z,14.25
2022-08-20T09:03:32.756Z,10.43
2022-08-20T09:06:40.469Z,15.98
2022-08-20T09:09:48.480Z,7.85
2022-08-20T09:12:53.538Z,13.82
2022-08-20T09:16:01.266Z,10.73
2022-08-20T09:19:06.913Z,13.20
2022-08-20T09:22:12.952Z,8.70
2022-08-20T09:25:17.886Z,9.25
2022-08-20T09:28:23.029Z,11.32
2022-08-20T09:31:32.118Z,9.48
2022-08-20T09:34:39.452Z,7.20
2022-08-20T09:37:44.462Z,7.68
2022-08-20T09:40:50.843Z,8.73
2022-08-20T09:43:55.793Z,11.35
2022-08-20T09:47:03.297Z,11.35
2022-08-20T09:50:09.771Z,6.72
2022-08-20T09:53:15.310Z,9.95
2022-08-20T09:56:20.707Z,11.57
2022-08-20T09:59:25.753Z,8.20
2022-08-20T10:02:33.309Z,10.13
2022-08-20T10:05:38.260Z,9.13
2022-08-20T10:08:43.409Z,8.82
2022-08-20T10:11:48.671Z,10.20
2022-08-20T10:14:55.671Z,10.30
2022-08-20T10:18:07.927Z,11.77
2022-08-20T10:21:14.092Z,6.93
2022-08-20T10:24:19.031Z,9.55
2022-08-20T10:27:23.998Z,9.02
2022-08-20T10:30:29.124Z,6.15
2022-08-20T10:33:36.777Z,8.70
2022-08-20T10:36:41.710Z,6.72
2022-08-20T10:39:48.714Z,9.43
2022-08-20T10:42:53.909Z,13.25
2022-08-20T10:45:58.927Z,4.60
2022-08-20T10:49:06.618Z,11.57
2022-08-20T10:52:11.606Z,9.68
2022-08-20T10:55:16.584Z,7.68
2022-08-20T10:58:23.835Z,9.00
2022-08-20T11:01:32.689Z,7.93
2022-08-20T11:04:41.669Z,7.10
2022-08-20T11:07:59.842Z,14.00
2022-08-20T11:11:05.030Z,9.70
2022-08-20T11:14:09.980Z,6.95
2022-08-20T11:17:15.654Z,10.02
2022-08-20T11:20:26.093Z,8.95
2022-08-20T11:23:31.099Z,6.78
2022-08-20T11:26:38.270Z,7.00
2022-08-20T11:29:43.254Z,13.77
2022-08-20T11:32:49.386Z,12.30
2022-08-20T11:35:56.953Z,7.22
2022-08-20T11:39:02.029Z,4.88
2022-08-20T11:42:07.541Z,11.13
2022-08-20T11:45:13.590Z,8.63
2022-08-20T11:48:18.832Z,8.63
2022-08-20T11:51:26.362Z,10.00
2022-08-20T11:54:32.593Z,7.47
2022-08-20T11:57:39.976Z,7.95
2022-08-20T12:00:45.026Z,7.03
2022-08-20T12:03:50.060Z,9.30
2022-08-20T12:06:57.569Z,7.55
2022-08-20T12:10:07.338Z,14.45
2022-08-20T12:13:12.400Z,8.68
2022-08-20T12:16:17.542Z,10.68
2022-08-20T12:19:22.596Z,9.30
2022-08-20T12:22:30.951Z,11.82
2022-08-20T12:25:36.688Z,7.95
2022-08-20T12:28:41.668Z,4.93
2022-08-20T12:31:46.657Z,6.50
2022-08-20T12:34:52.130Z,8.52
2022-08-20T12:37:59.670Z,6.18
2022-08-20T12:41:04.663Z,8.10
2022-08-20T12:44:13.270Z,5.38
2022-08-20T12:47:20.685Z,8.75
2022-08-20T12:50:31.436Z,8.23
2022-08-20T12:53:39.493Z,6.80
2022-08-20T12:56:44.526Z,6.25
2022-08-20T12:59:49.469Z,7.88
2022-08-20T13:02:56.115Z,5.35
2022-08-20T13:06:04.018Z,9.05
2022-08-20T13:09:11.594Z,7.30
2022-08-20T13:12:17.027Z,5.93
2022-08-20T13:15:25.331Z,10.02
2022-08-20T13:18:30.325Z,9.60
2022-08-20T13:21:36.686Z,6.30
2022-08-20T13:24:45.161Z,7.05
2022-08-20T13:27:51.054Z,4.50
2022-08-20T13:30:56.054Z,5.50
2022-08-20T13:34:01.037Z,8.65
2022-08-20T13:37:13.917Z,7.28
2022-08-20T13:40:21.964Z,8.23
2022-08-20T13:43:26.988Z,7.88
2022-08-20T13:46:31.960Z,8.63
2022-08-20T13:49:36.929Z,7.80
2022-08-20T13:52:42.577Z,4.90
2022-08-20T13:55:50.385Z,4.88
2022-08-20T13:58:55.426Z,6.13
2022-08-20T14:02:03.991Z,8.65
2022-08-20T14:05:14.155Z,8.27
2022-08-20T14:08:24.933Z,3.08
2022-08-20T14:11:32.507Z,6.88
2022-08-20T14:14:37.486Z,5.60
2022-08-20T14:17:44.575Z,8.23
2022-08-20T14:20:49.947Z,6.97
2022-08-20T14:23:54.874Z,5.07
2022-08-20T14:27:02.777Z,5.43
2022-08-20T14:30:10.570Z,7.70
2022-08-20T14:33:15.510Z,10.95
2022-08-20T14:36:20.522Z,5.00
2022-08-20T14:39:26.926Z,6.32
2022-08-20T14:42:34.496Z,6.95
2022-08-20T14:45:41.999Z,7.15
2022-08-20T14:48:53.215Z,8.05
2022-08-20T14:51:59.746Z,10.30
2022-08-20T14:55:04.890Z,7.47
2022-08-20T14:58:16.998Z,8.15
2022-08-20T15:01:22.012Z,8.40
2022-08-20T15:04:27.099Z,7.38
2022-08-20T15:07:34.678Z,8.98
2022-08-20T15:10:39.797Z,5.00
2022-08-20T15:13:47.398Z,5.32
2022-08-20T15:16:52.478Z,9.50
2022-08-20T15:19:58.425Z,8.32
2022-08-20T15:23:03.927Z,4.65
2022-08-20T15:26:09.276Z,6.43
2022-08-20T15:29:23.203Z,6.50
2022-08-20T15:32:28.506Z,10.48
2022-08-20T15:35:33.711Z,8.70
2022-08-20T15:38:39.019Z,5.85
2022-08-20T15:41:43.938Z,7.00
2022-08-20T15:44:52.339Z,5.82
2022-08-20T15:48:02.426Z,7.82
2022-08-20T15:51:34.470Z,9.20
2022-08-20T15:54:40.842Z,5.88
2022-08-20T15:57:56.058Z,7.47
2022-08-20T16:01:23.951Z,11.90
2022-08-20T16:05:03.641Z,8.18
2022-08-20T16:08:22.421Z,6.47
2022-08-20T16:11:40.647Z,6.68
2022-08-20T16:14:48.245Z,6.95
2022-08-20T16:18:05.872Z,5.05
2022-08-20T16:21:14.228Z,8.32
2022-08-20T16:24:20.046Z,4.75
2022-08-20T16:27:33.011Z,3.78
2022-08-20T16:30:43.435Z,9.05
2022-08-20T16:34:04.665Z,7.57
2022-08-20T16:37:31.218Z,6.70
2022-08-20T16:40:41.947Z,6.47
2022-08-20T16:43:53.682Z,6.65
2022-08-20T16:47:13.711Z,6.60
2022-08-20T16:50:25.531Z,5.55
2022-08-20T16:53:31.128Z,5.40
2022-08-20T16:56:38.114Z,5.95
2022-08-20T17:00:08.295Z,5.63
2022-08-20T17:03:38.529Z,8.00
2022-08-20T17:06:50.670Z,14.25
2022-08-20T17:10:12.764Z,10.77
2022-08-20T17:13:28.221Z,10.35
2022-08-20T17:16:37.749Z,8.50
2022-08-20T17:19:42.761Z,7.60
2022-08-20T17:22:54.939Z,7.15
2022-08-20T17:26:04.983Z,11.63
2022-08-20T17:29:16.076Z,4.13
2022-08-20T17:32:25.765Z,9.88
2022-08-20T17:35:34.998Z,8.43
2022-08-20T17:38:49.276Z,8.48
2022-08-20T17:41:58.494Z,7.45
2022-08-20T17:45:10.774Z,6.70
2022-08-20T17:48:19.516Z,11.25
2022-08-20T17:51:28.442Z,10.73
2022-08-20T17:54:41.822Z,8.43
2022-08-20T17:57:48.718Z,6.75
2022-08-20T18:00:53.797Z,10.30
2022-08-20T18:03:59.206Z,4.97
2022-08-20T18:07:11.028Z,7.00
2022-08-20T18:10:23.402Z,6.75
2022-08-20T18:13:44.956Z,7.82
2022-08-20T18:17:16.446Z,11.07
2022-08-20T18:20:46.037Z,15.25
2022-08-20T18:23:55.380Z,8.63
2022-08-20T18:27:08.840Z,6.82
2022-08-20T18:30:20.189Z,8.88
2022-08-20T18:33:32.678Z,8.23
2022-08-20T18:36:37.666Z,8.18
2022-08-20T18:39:44.757Z,6.22
2022-08-20T18:42:52.328Z,5.68
2022-08-20T18:45:57.302Z,8.32
2022-08-20T18:49:05.081Z,8.68
2022-08-20T18:52:16.102Z,11.88
2022-08-20T18:55:34.158Z,13.98
2022-08-20T18:58:54.786Z,11.48
2022-08-20T19:02:00.879Z,8.38
2022-08-20T19:05:09.976Z,7.47
2022-08-20T19:08:19.681Z,7.22
2022-08-20T19:12:09.410Z,16.40
2022-08-20T19:15:19.484Z,8.10
2022-08-20T19:18:29.250Z,9.45
2022-08-20T19:21:42.325Z,13.52
2022-08-20T19:24:47.826Z,7.00
2022-08-20T19:27:55.360Z,8.48
2022-08-20T19:31:12.145Z,11.75
2022-08-20T19:34:22.797Z,11.50
2022-08-20T19:37:40.052Z,7.43
2022-08-20T19:41:10.941Z,8.38
2022-08-20T19:44:28.027Z,9.73
2022-08-20T19:47:39.190Z,7.65
2022-08-20T19:50:52.662Z,10.38
2022-08-20T19:53:59.778Z,14.57
2022-08-20T19:57:09.530Z,7.68
2022-08-20T20:00:16.135Z,7.75
2022-08-20T20:03:25.745Z,8.88
2022-08-20T20:06:33.892Z,8.13
2022-08-20T20:09:44.546Z,8.88
2022-08-20T20:12:52.347Z,7.20
2022-08-20T20:16:00.043Z,8.38
2022-08-20T20:19:26.866Z,8.38
2022-08-20T20:22:35.698Z,9.85
2022-08-20T20:25:43.887Z,10.63
2022-08-20T20:28:51.394Z,6.65
2022-08-20T20:31:58.423Z,8.00
2022-08-20T20:35:08.782Z,7.00
2022-08-20T20:38:17.580Z,8.10
2022-08-20T20:41:28.347Z,11.00
2022-08-20T20:44:37.711Z,9.02
2022-08-20T20:47:42.890Z,14.48
2022-08-20T20:50:52.706Z,7.95
2022-08-20T20:54:05.683Z,11.30
2022-08-20T20:57:38.740Z,11.05
2022-08-20T21:00:44.187Z,13.82
2022-08-20T21:03:49.242Z,6.75
2022-08-20T21:06:59.917Z,11.32
2022-08-20T21:10:04.887Z,11.18
2022-08-20T21:13:11.282Z,14.00
2022-08-20T21:16:16.246Z,10.48
2022-08-20T21:19:21.549Z,6.72
2022-08-20T21:22:29.301Z,10.52
2022-08-20T21:25:36.634Z,8.73
2022-08-20T21:28:41.690Z,5.93
2022-08-20T21:31:48.233Z,17.00
2022-08-20T21:34:55.255Z,13.65
2022-08-20T21:38:02.757Z,12.90
2022-08-20T21:41:08.017Z,12.77
2022-08-20T21:44:21.233Z,11.38
2022-08-20T21:47:26.435Z,14.27
2022-08-20T21:50:31.375Z,13.70
2022-08-20T21:53:38.857Z,16.15
2022-08-20T21:56:44.250Z,10.15
2022-08-20T21:59:49.390Z,10.70
2022-08-20T22:02:54.376Z,7.43
2022-08-20T22:06:00.489Z,9.43
2022-08-20T22:09:08.074Z,11.00
2022-08-20T22:12:19.009Z,8.13
2022-08-20T22:15:23.997Z,11.10
2022-08-20T22:18:29.000Z,9.40
2022-08-20T22:21:35.957Z,12.05
2022-08-20T22:24:43.569Z,11.15
2022-08-20T22:27:48.661Z,5.75
2022-08-20T22:30:53.814Z,6.43
2022-08-20T22:33:58.826Z,6.43
2022-08-20T22:37:06.606Z,18.02
2022-08-20T22:40:14.995Z,11.02
2022-08-20T22:43:20.588Z,10.18
2022-08-20T22:46:27.393Z,15.73
2022-08-20T22:49:35.158Z,7.82
2022-08-20T22:52:43.482Z,5.97
2022-08-20T22:55:51.635Z,7.47
2022-08-20T22:58:58.354Z,8.40
2022-08-20T23:02:08.525Z,12.23
2022-08-20T23:05:18.021Z,7.07
2022-08-20T23:08:23.069Z,10.80
2022-08-20T23:11:54.873Z,11.82
2022-08-20T23:14:59.939Z,11.90
2022-08-20T23:18:07.609Z,10.13
2022-08-20T23:21:14.232Z,8.32
2022-08-20T23:24:19.798Z,9.98
2022-08-20T23:27:28.131Z,6.45
2022-08-20T23:30:33.265Z,8.63
2022-08-20T23:33:41.781Z,7.38
2022-08-20T23:36:49.737Z,11.32
2022-08-20T23:39:54.983Z,10.13
2022-08-20T23:43:02.687Z,9.77
2022-08-20T23:46:09.537Z,12.23
2022-08-20T23:49:14.529Z,8.80
2022-08-20T23:52:19.749Z,7.13
2022-08-20T23:55:25.699Z,13.73
2022-08-20T23:58:33.234Z,10.18
